Airfield :
LOGIN :

Register | Disclaimer

   EN    FR    IT 

 










Legend :    VFR   Marginal VFR   IFR   Intensive IFR   Very Intensive IFR
Visi :
Ceiling :
>= 8 km
>= 3000ft
5 to 8 km
1000 to 3000 ft
1500m to 5 km
500 to 1000 ft
800 to 1500m
200 to 500 ft
< 800m
< 200 ft
Symbols :   Thunderstorms  Fog  Heavy snow  Heavy precipitations  Wind > 20 kt
SIGMETs :     Misc.  Thunderstorms  Icing  Turbulence  Mountain Waves  Volcanic Ashes







- Airport Elevation : 194 ft


EBCV - Chièvres

CURRENT METAR :
  • 142225Z AUTO 21005KT 9999 NCD 14/13 Q1020 BLU

EXPIRED METARs :
  • 142155Z AUTO 23004KT 9999 NCD 15/13 Q1020 BLU
  • 142125Z AUTO 23005KT 9999 NCD 16/13 Q1020 BLU
  • 142055Z AUTO 24005KT 9999 FEW048/// 18/13 Q1019 BLU
  • 142025Z AUTO 26005KT 9999 BKN048/// 18/13 Q1019 BLU
  • 141955Z AUTO 26004KT 9999 OVC048/// 19/13 Q1019 BLU

TAF TAF EBCV
Valid from the 14 at 19:00 until the 15 at 07:00 UTC


141546Z 1419/1507 27006KT 9999 SCT025 SCT050
BECMG 1420/1422 24005KT SCT012 SCT020
BECMG 1422/1500 4000 BR SCT005 BKN008
PROB40
TEMPO 1502/1507 0700 FG SCT001 BKN003 BY EBWM
No reported NOTAMs for that airfield.



MET'MAP, your aeronautical weather chart ! - Copyright ORBIFLY December 2007 - Disclaimer

ORBIFLY MET'MAP TEAM :

Programming & Development : Alexandra Zaïnal
Concept & Development : Baudouin d'Aumeries
Co-Development & Prog : Marc-Olivier Méhu
Technical & hardware support : Manuel Goepfert

Contact : metmap@orbifly.com




SOURCES & CREDITS :

   NOAA